Time;durP1;ratioP1;P1;durP2;ratioP2;P2;SDS_P1;SDS_P2;PMS_P1;PMS_P2;Temp;Humidity;BMP_temperature;BMP_pressure;BME280_temperature;BME280_humidity;BME280_pressure;Samples;Min_cycle;Max_cycle;Signal;HPM_P1;HPM_P2
2021/10/22 00:00:16;;;;;;;0.30;0.30;;;;;;;;;;5032814;28;20029;-51
2021/10/22 00:02:42;;;;;;;0.20;0.20;;;;;;;;;;5032710;28;20459;-51
2021/10/22 00:05:08;;;;;;;0.30;0.30;;;;;;;;;;5031917;28;20341;-51
2021/10/22 00:07:34;;;;;;;0.30;0.30;;;;;;;;;;5033245;28;20074;-51
2021/10/22 00:10:00;;;;;;;0.20;0.20;;;;;;;;;;5032832;28;20033;-51
2021/10/22 00:12:26;;;;;;;0.30;0.30;;;;;;;;;;5033109;28;20028;-51
2021/10/22 00:14:52;;;;;;;0.30;0.30;;;;;;;;;;5032041;28;20026;-51
2021/10/22 00:17:18;;;;;;;2.50;0.30;;;;;;;;;;5033081;28;20053;-51
2021/10/22 00:19:45;;;;;;;0.30;0.30;;;;;;;;;;5032099;28;20037;-51
2021/10/22 00:22:11;;;;;;;0.20;0.20;;;;;;;;;;5031385;28;20059;-51
2021/10/22 00:24:37;;;;;;;0.20;0.20;;;;;;;;;;5031761;28;20091;-51
2021/10/22 00:27:03;;;;;;;0.30;0.30;;;;;;;;;;5032949;28;20352;-51
2021/10/22 00:29:29;;;;;;;0.28;0.28;;;;;;;;;;5032342;28;20024;-51
2021/10/22 00:31:55;;;;;;;0.22;0.22;;;;;;;;;;5032658;28;20057;-51
2021/10/22 00:34:21;;;;;;;0.20;0.20;;;;;;;;;;5031596;28;20068;-51
2021/10/22 00:36:48;;;;;;;0.55;0.55;;;;;;;;;;5032922;28;20037;-51
2021/10/22 00:39:14;;;;;;;0.20;0.20;;;;;;;;;;5032514;28;20029;-51
2021/10/22 00:41:41;;;;;;;0.30;0.30;;;;;;;;;;5032696;28;20332;-51
2021/10/22 00:44:07;;;;;;;0.30;0.30;;;;;;;;;;5031672;28;20033;-51
2021/10/22 00:46:37;;;;;;;1.65;0.40;;;;;;;;;;5032296;28;20086;-51
2021/10/22 00:49:03;;;;;;;0.30;0.30;;;;;;;;;;5032274;28;20021;-51
2021/10/22 00:51:29;;;;;;;0.30;0.30;;;;;;;;;;5032421;28;20036;-51
2021/10/22 00:53:55;;;;;;;0.30;0.30;;;;;;;;;;5032012;28;20030;-51
2021/10/22 00:56:23;;;;;;;0.30;0.30;;;;;;;;;;5032219;28;20351;-51
2021/10/22 00:58:49;;;;;;;0.30;0.30;;;;;;;;;;5032647;28;20068;-51
2021/10/22 01:01:15;;;;;;;0.30;0.30;;;;;;;;;;5032748;28;20018;-51
2021/10/22 01:03:41;;;;;;;0.20;0.20;;;;;;;;;;5034890;28;20347;-51
2021/10/22 01:06:09;;;;;;;1.75;0.50;;;;;;;;;;5035574;28;20466;-51
2021/10/22 01:08:35;;;;;;;0.55;0.40;;;;;;;;;;5036498;28;20025;-51
2021/10/22 01:11:01;;;;;;;0.30;0.30;;;;;;;;;;5036095;28;20026;-51
2021/10/22 01:13:28;;;;;;;0.40;0.40;;;;;;;;;;5035385;28;20417;-51
2021/10/22 01:15:53;;;;;;;1.83;0.40;;;;;;;;;;5035310;28;20466;-51
2021/10/22 01:18:20;;;;;;;1.75;0.40;;;;;;;;;;5036045;28;20025;-51
2021/10/22 01:20:46;;;;;;;0.35;0.35;;;;;;;;;;5035871;28;20029;-51
2021/10/22 01:23:12;;;;;;;0.50;0.50;;;;;;;;;;5035466;28;20483;-51
2021/10/22 01:25:38;;;;;;;0.38;0.38;;;;;;;;;;5034926;28;20037;-51
2021/10/22 01:28:06;;;;;;;0.40;0.40;;;;;;;;;;5036062;28;20049;-51
2021/10/22 01:30:32;;;;;;;2.67;0.50;;;;;;;;;;5035074;28;20039;-51
2021/10/22 01:33:03;;;;;;;1.02;0.50;;;;;;;;;;5035313;28;20419;-51
2021/10/22 01:35:29;;;;;;;0.30;0.30;;;;;;;;;;5034965;28;20064;-51
2021/10/22 01:37:55;;;;;;;0.40;0.40;;;;;;;;;;5035383;28;20109;-51
2021/10/22 01:40:21;;;;;;;2.15;0.50;;;;;;;;;;5035506;28;20444;-51
2021/10/22 01:42:47;;;;;;;0.40;0.40;;;;;;;;;;5035153;28;20029;-51
2021/10/22 01:45:13;;;;;;;0.60;0.32;;;;;;;;;;5033871;28;20045;-50
2021/10/22 01:47:39;;;;;;;0.43;0.43;;;;;;;;;;5035414;28;20120;-50
2021/10/22 01:50:06;;;;;;;0.90;0.60;;;;;;;;;;5035175;28;20037;-51
2021/10/22 01:52:32;;;;;;;0.50;0.50;;;;;;;;;;5035150;28;20051;-51
2021/10/22 01:54:58;;;;;;;0.85;0.68;;;;;;;;;;5034765;28;20116;-51
2021/10/22 01:57:25;;;;;;;0.40;0.40;;;;;;;;;;5035074;28;20056;-51
2021/10/22 01:59:51;;;;;;;0.85;0.63;;;;;;;;;;5034841;28;20032;-50
2021/10/22 02:02:17;;;;;;;2.05;0.60;;;;;;;;;;5035239;28;20022;-50
2021/10/22 02:04:43;;;;;;;1.75;1.08;;;;;;;;;;5034326;28;20036;-51
2021/10/22 02:07:09;;;;;;;1.38;0.50;;;;;;;;;;5034847;28;20026;-50
2021/10/22 02:09:35;;;;;;;0.68;0.60;;;;;;;;;;5034957;28;20034;-51
2021/10/22 02:12:01;;;;;;;0.40;0.40;;;;;;;;;;5034645;28;20163;-51
2021/10/22 02:14:28;;;;;;;1.42;0.80;;;;;;;;;;5032696;28;20036;-51
2021/10/22 02:16:54;;;;;;;0.50;0.50;;;;;;;;;;5034557;28;20064;-50
2021/10/22 02:19:20;;;;;;;0.50;0.50;;;;;;;;;;5034941;28;20018;-50
2021/10/22 02:21:46;;;;;;;0.88;0.70;;;;;;;;;;5034400;28;20359;-50
2021/10/22 02:24:12;;;;;;;3.42;1.02;;;;;;;;;;5033961;28;20041;-51
2021/10/22 02:26:38;;;;;;;0.63;0.60;;;;;;;;;;5034482;28;20029;-51
2021/10/22 02:29:04;;;;;;;0.55;0.55;;;;;;;;;;5034220;28;20363;-51
2021/10/22 02:31:30;;;;;;;1.35;0.75;;;;;;;;;;5034413;28;20484;-51
2021/10/22 02:33:56;;;;;;;1.95;1.02;;;;;;;;;;5033617;28;20028;-51
2021/10/22 02:36:22;;;;;;;0.47;0.47;;;;;;;;;;5034156;28;20031;-51
2021/10/22 02:38:48;;;;;;;4.07;0.77;;;;;;;;;;5034618;28;20026;-51
2021/10/22 02:41:15;;;;;;;1.48;0.63;;;;;;;;;;5034484;28;20028;-50
2021/10/22 02:43:41;;;;;;;0.70;0.70;;;;;;;;;;5033241;28;20030;-51
2021/10/22 02:46:07;;;;;;;0.88;0.50;;;;;;;;;;5033824;28;20033;-50
2021/10/22 02:48:33;;;;;;;0.57;0.57;;;;;;;;;;5034375;28;20053;-50
2021/10/22 02:50:59;;;;;;;0.95;0.85;;;;;;;;;;5034164;28;20021;-51
2021/10/22 02:53:25;;;;;;;1.00;0.70;;;;;;;;;;5027869;28;20067;-51
2021/10/22 02:55:52;;;;;;;2.63;0.93;;;;;;;;;;5033517;28;20033;-51
2021/10/22 02:58:18;;;;;;;2.17;1.02;;;;;;;;;;5034251;28;20025;-51
2021/10/22 03:00:44;;;;;;;1.17;0.90;;;;;;;;;;5033705;28;20026;-51
2021/10/22 03:03:10;;;;;;;0.70;0.70;;;;;;;;;;5034251;28;20022;-51
2021/10/22 03:05:36;;;;;;;0.90;0.90;;;;;;;;;;5033040;28;20468;-51
2021/10/22 03:08:02;;;;;;;3.42;1.08;;;;;;;;;;5042854;28;20021;-50
2021/10/22 03:10:28;;;;;;;1.48;1.00;;;;;;;;;;5053451;28;20120;-50
2021/10/22 03:12:54;;;;;;;0.98;0.88;;;;;;;;;;5053767;28;20096;-51
2021/10/22 03:15:20;;;;;;;2.25;1.02;;;;;;;;;;5052392;28;20044;-51
2021/10/22 03:17:46;;;;;;;1.58;1.20;;;;;;;;;;5053617;28;20048;-50
2021/10/22 03:20:12;;;;;;;3.38;1.40;;;;;;;;;;5053512;28;20129;-50
2021/10/22 03:22:39;;;;;;;3.28;1.30;;;;;;;;;;5053359;28;20052;-50
2021/10/22 03:25:06;;;;;;;2.97;1.30;;;;;;;;;;5052506;28;20037;-50
2021/10/22 03:27:34;;;;;;;2.05;1.10;;;;;;;;;;5053064;28;20096;-50
2021/10/22 03:30:00;;;;;;;2.03;1.40;;;;;;;;;;5043872;28;20037;-50
2021/10/22 03:32:26;;;;;;;2.90;1.90;;;;;;;;;;5033319;28;20025;-50
2021/10/22 03:34:52;;;;;;;2.85;1.45;;;;;;;;;;5032469;28;20022;-50
2021/10/22 03:37:18;;;;;;;2.38;1.60;;;;;;;;;;5032891;28;20022;-51
2021/10/22 03:39:44;;;;;;;1.67;1.45;;;;;;;;;;5033476;28;20116;-51
2021/10/22 03:42:10;;;;;;;3.45;1.75;;;;;;;;;;5033010;28;20088;-50
2021/10/22 03:44:37;;;;;;;1.65;1.55;;;;;;;;;;5032189;28;20038;-50
2021/10/22 03:47:04;;;;;;;1.70;1.55;;;;;;;;;;5033624;28;20354;-51
2021/10/22 03:49:30;;;;;;;2.35;1.73;;;;;;;;;;5033038;28;20041;-50
2021/10/22 03:51:56;;;;;;;2.58;1.52;;;;;;;;;;5032871;28;20089;-51
2021/10/22 03:54:22;;;;;;;1.67;1.58;;;;;;;;;;5032719;28;20538;-50
2021/10/22 03:56:48;;;;;;;3.92;1.30;;;;;;;;;;5032729;28;20022;-51
2021/10/22 03:59:16;;;;;;;1.90;1.75;;;;;;;;;;5033140;28;20029;-51
2021/10/22 04:01:42;;;;;;;1.92;1.38;;;;;;;;;;5032978;28;20509;-51
2021/10/22 04:04:08;;;;;;;4.20;1.48;;;;;;;;;;5032049;28;20040;-51
2021/10/22 04:06:34;;;;;;;2.83;1.30;;;;;;;;;;5032812;28;20025;-51
2021/10/22 04:09:00;;;;;;;4.32;1.75;;;;;;;;;;5032379;28;20038;-50
2021/10/22 04:11:27;;;;;;;7.40;1.42;;;;;;;;;;5032691;28;20022;-51
2021/10/22 04:13:53;;;;;;;3.85;1.98;;;;;;;;;;5032043;28;20444;-51
2021/10/22 04:16:19;;;;;;;3.00;1.77;;;;;;;;;;5032459;28;20028;-51
2021/10/22 04:18:45;;;;;;;4.18;1.90;;;;;;;;;;5032979;28;20033;-51
2021/10/22 04:21:11;;;;;;;1.80;1.40;;;;;;;;;;5032942;28;20514;-51
2021/10/22 04:23:37;;;;;;;3.22;1.40;;;;;;;;;;5032058;28;20021;-51
2021/10/22 04:26:03;;;;;;;3.90;1.58;;;;;;;;;;5032597;28;20036;-51
2021/10/22 04:28:29;;;;;;;1.85;1.42;;;;;;;;;;5033095;28;20029;-50
2021/10/22 04:30:55;;;;;;;1.80;1.35;;;;;;;;;;5032244;28;20111;-51
2021/10/22 04:33:21;;;;;;;2.05;1.45;;;;;;;;;;5032636;28;20394;-51
2021/10/22 04:35:47;;;;;;;3.75;1.30;;;;;;;;;;5032043;28;20025;-51
2021/10/22 04:40:45;;;;;;;3.30;1.38;;;;;;;;;;5036627;28;20030;-51
2021/10/22 04:43:15;;;;;;;2.28;1.80;;;;;;;;;;5036246;28;20037;-51
2021/10/22 04:45:42;;;;;;;3.97;2.13;;;;;;;;;;5035539;28;20034;-51
2021/10/22 04:48:09;;;;;;;4.00;1.63;;;;;;;;;;5036455;28;20474;-51
2021/10/22 04:50:40;;;;;;;4.10;1.60;;;;;;;;;;5036613;28;20033;-51
2021/10/22 04:53:07;;;;;;;2.45;1.67;;;;;;;;;;5036063;28;20043;-51
2021/10/22 04:55:33;;;;;;;1.92;1.40;;;;;;;;;;5035186;28;20036;-50
2021/10/22 04:57:59;;;;;;;4.80;1.65;;;;;;;;;;5036496;28;20021;-51
2021/10/22 05:00:26;;;;;;;1.23;1.13;;;;;;;;;;5036169;28;20455;-51
2021/10/22 05:02:51;;;;;;;3.58;1.70;;;;;;;;;;5036409;28;20026;-51
2021/10/22 05:05:18;;;;;;;3.00;1.60;;;;;;;;;;5035129;28;20418;-51
2021/10/22 05:07:44;;;;;;;4.38;1.65;;;;;;;;;;5035874;28;20052;-50
2021/10/22 05:10:10;;;;;;;2.05;1.35;;;;;;;;;;5035663;28;20526;-51
2021/10/22 05:12:36;;;;;;;1.65;1.55;;;;;;;;;;5036128;28;20112;-51
2021/10/22 05:15:04;;;;;;;3.47;1.65;;;;;;;;;;5035373;28;20064;-50
2021/10/22 05:17:32;;;;;;;2.42;1.38;;;;;;;;;;5035926;28;20036;-50
2021/10/22 05:19:58;;;;;;;5.45;1.58;;;;;;;;;;5035594;28;20047;-50
2021/10/22 05:22:24;;;;;;;4.15;1.50;;;;;;;;;;5035458;28;20467;-51
2021/10/22 05:24:50;;;;;;;3.45;1.58;;;;;;;;;;5034654;28;20120;-50
2021/10/22 05:27:16;;;;;;;3.35;1.90;;;;;;;;;;5036125;28;20111;-50
2021/10/22 05:29:42;;;;;;;2.35;1.42;;;;;;;;;;5035460;28;20101;-50
2021/10/22 05:32:08;;;;;;;3.97;1.30;;;;;;;;;;5035879;28;20112;-49
2021/10/22 05:34:34;;;;;;;2.42;1.17;;;;;;;;;;5034745;28;20033;-50
2021/10/22 05:37:00;;;;;;;1.88;1.60;;;;;;;;;;5035155;28;20482;-50
2021/10/22 05:39:26;;;;;;;4.20;2.28;;;;;;;;;;5035367;28;20091;-50
2021/10/22 05:41:52;;;;;;;6.20;2.33;;;;;;;;;;5035319;28;20037;-50
2021/10/22 05:44:19;;;;;;;2.05;1.60;;;;;;;;;;5034743;28;20065;-50
2021/10/22 05:46:45;;;;;;;2.95;1.63;;;;;;;;;;5035050;28;20359;-50
2021/10/22 05:49:11;;;;;;;2.55;1.25;;;;;;;;;;5034101;28;20064;-51
2021/10/22 05:51:38;;;;;;;4.07;1.75;;;;;;;;;;5034754;28;20515;-50
2021/10/22 05:54:04;;;;;;;7.63;1.63;;;;;;;;;;5034668;28;20053;-50
2021/10/22 05:56:30;;;;;;;5.85;1.73;;;;;;;;;;5034906;28;20061;-50
2021/10/22 05:58:56;;;;;;;3.78;1.45;;;;;;;;;;5035187;28;20087;-50
2021/10/22 06:01:22;;;;;;;2.53;1.40;;;;;;;;;;5035150;28;20025;-50
2021/10/22 06:03:48;;;;;;;4.25;1.40;;;;;;;;;;5033767;28;20781;-50
2021/10/22 06:06:15;;;;;;;2.42;1.15;;;;;;;;;;5035362;28;20025;-50
2021/10/22 06:08:41;;;;;;;2.55;1.20;;;;;;;;;;5035235;28;20028;-50
2021/10/22 06:11:10;;;;;;;4.43;1.17;;;;;;;;;;5034716;28;20459;-50
2021/10/22 06:13:37;;;;;;;1.33;1.20;;;;;;;;;;5034142;28;20025;-50
2021/10/22 06:16:03;;;;;;;2.60;1.23;;;;;;;;;;5034795;28;20083;-50
2021/10/22 06:18:29;;;;;;;2.38;1.70;;;;;;;;;;5034391;28;20021;-50
2021/10/22 06:21:03;;;;;;;4.63;1.63;;;;;;;;;;5034461;28;20017;-50
2021/10/22 06:26:15;;;;;;;6.22;1.95;;;;;;;;;;5034465;28;20390;-50
2021/10/22 06:28:41;;;;;;;4.05;1.63;;;;;;;;;;5034117;28;20432;-50
2021/10/22 06:31:07;;;;;;;5.22;1.75;;;;;;;;;;5033971;28;20507;-50
2021/10/22 06:33:33;;;;;;;1.67;1.27;;;;;;;;;;5034006;28;20037;-50
2021/10/22 06:35:59;;;;;;;3.45;1.70;;;;;;;;;;5034551;28;20152;-50
2021/10/22 06:38:25;;;;;;;7.53;2.17;;;;;;;;;;5034430;28;20030;-50
2021/10/22 06:40:55;;;;;;;3.67;1.60;;;;;;;;;;5034207;28;20017;-50
2021/10/22 06:43:22;;;;;;;4.57;1.25;;;;;;;;;;5034229;28;20033;-50
2021/10/22 06:45:49;;;;;;;3.28;1.20;;;;;;;;;;5033507;28;20056;-50
2021/10/22 06:48:15;;;;;;;8.00;1.40;;;;;;;;;;5034203;28;20411;-50
2021/10/22 06:50:41;;;;;;;4.00;1.70;;;;;;;;;;5034290;28;20029;-50
2021/10/22 06:53:08;;;;;;;11.43;1.45;;;;;;;;;;5034314;28;20104;-50
2021/10/22 06:55:34;;;;;;;2.05;1.10;;;;;;;;;;5033342;28;20029;-50
2021/10/22 06:58:00;;;;;;;1.33;1.20;;;;;;;;;;5033849;28;20036;-50
2021/10/22 07:00:29;;;;;;;6.40;1.15;;;;;;;;;;5033897;28;20101;-50
2021/10/22 07:02:56;;;;;;;3.95;1.48;;;;;;;;;;5034066;28;20140;-50
2021/10/22 07:07:52;;;;;;;15.65;1.80;;;;;;;;;;5034108;28;20027;-50
2021/10/22 07:10:18;;;;;;;6.75;1.25;;;;;;;;;;5033972;28;20026;-50
2021/10/22 07:12:44;;;;;;;2.63;1.20;;;;;;;;;;5033656;28;20033;-50
2021/10/22 07:15:10;;;;;;;2.67;1.02;;;;;;;;;;5033039;28;20028;-50
2021/10/22 07:17:37;;;;;;;8.27;1.17;;;;;;;;;;5033689;28;20071;-50
2021/10/22 07:20:03;;;;;;;2.60;1.35;;;;;;;;;;5033723;28;20033;-50
2021/10/22 07:22:32;;;;;;;1.45;1.00;;;;;;;;;;5033870;28;20018;-50
2021/10/22 07:24:58;;;;;;;4.22;1.08;;;;;;;;;;5032395;28;20033;-50
2021/10/22 07:27:24;;;;;;;4.90;1.02;;;;;;;;;;5033591;28;20036;-50
2021/10/22 07:29:50;;;;;;;1.27;0.93;;;;;;;;;;5033509;28;20103;-50
2021/10/22 07:32:16;;;;;;;2.33;0.85;;;;;;;;;;5033222;28;20021;-50
2021/10/22 07:34:42;;;;;;;1.20;1.00;;;;;;;;;;5032535;28;20618;-50
2021/10/22 07:37:08;;;;;;;1.83;1.00;;;;;;;;;;5033530;28;20110;-50
2021/10/22 07:39:34;;;;;;;6.47;1.65;;;;;;;;;;5032888;28;20025;-50
2021/10/22 07:42:01;;;;;;;8.35;1.20;;;;;;;;;;5033267;28;20025;-50
2021/10/22 07:44:27;;;;;;;2.20;1.30;;;;;;;;;;5032737;28;20034;-50
2021/10/22 07:46:54;;;;;;;3.60;1.10;;;;;;;;;;5032896;28;20415;-50
2021/10/22 07:49:20;;;;;;;10.13;1.77;;;;;;;;;;5033481;28;20439;-50
2021/10/22 07:51:46;;;;;;;6.10;1.85;;;;;;;;;;5032778;28;20371;-50
2021/10/22 07:54:12;;;;;;;7.38;1.65;;;;;;;;;;5032249;28;20026;-50
2021/10/22 07:56:43;;;;;;;7.00;0.93;;;;;;;;;;5033174;28;20032;-51
2021/10/22 07:59:10;;;;;;;13.07;1.83;;;;;;;;;;5033048;28;20029;-50
2021/10/22 08:01:36;;;;;;;8.68;1.38;;;;;;;;;;5032853;28;20092;-50
2021/10/22 08:04:02;;;;;;;6.85;1.35;;;;;;;;;;5032222;28;20440;-50
2021/10/22 08:06:28;;;;;;;3.90;1.42;;;;;;;;;;5032843;28;20037;-50
2021/10/22 08:08:54;;;;;;;3.88;1.10;;;;;;;;;;5032376;28;20022;-50
2021/10/22 08:11:20;;;;;;;11.95;2.22;;;;;;;;;;5032515;28;20112;-50
2021/10/22 08:13:46;;;;;;;6.60;1.42;;;;;;;;;;5031959;28;20033;-50
2021/10/22 08:16:13;;;;;;;7.22;1.05;;;;;;;;;;5032519;28;20430;-50
2021/10/22 08:18:40;;;;;;;12.50;1.27;;;;;;;;;;5032907;28;20021;-50
2021/10/22 08:23:52;;;;;;;6.80;1.52;;;;;;;;;;5020723;28;20037;-50
2021/10/22 08:26:18;;;;;;;6.60;2.00;;;;;;;;;;5032630;28;20029;-50
2021/10/22 08:28:47;;;;;;;5.05;1.73;;;;;;;;;;5032592;28;20029;-50
2021/10/22 08:31:13;;;;;;;7.45;1.10;;;;;;;;;;5032286;28;20053;-50
2021/10/22 08:33:39;;;;;;;4.80;1.80;;;;;;;;;;5050604;28;20021;-51
2021/10/22 08:36:07;;;;;;;5.47;1.50;;;;;;;;;;5056479;28;20031;-50
2021/10/22 08:38:33;;;;;;;3.42;1.40;;;;;;;;;;5052252;28;20032;-50
2021/10/22 08:40:59;;;;;;;6.15;1.27;;;;;;;;;;5062147;28;20469;-50
2021/10/22 08:43:27;;;;;;;3.70;1.40;;;;;;;;;;5051454;28;20462;-51
2021/10/22 08:45:54;;;;;;;19.02;1.98;;;;;;;;;;5051590;28;20041;-50
2021/10/22 08:48:20;;;;;;;7.00;1.17;;;;;;;;;;5051602;28;20171;-51
2021/10/22 08:50:47;;;;;;;6.63;2.15;;;;;;;;;;5063027;28;20025;-50
2021/10/22 08:53:13;;;;;;;6.40;1.88;;;;;;;;;;5057413;28;20097;-50
2021/10/22 08:55:39;;;;;;;7.30;1.98;;;;;;;;;;5057395;28;20037;-50
2021/10/22 08:58:05;;;;;;;5.32;1.90;;;;;;;;;;5067582;28;20025;-50
2021/10/22 09:00:31;;;;;;;10.65;1.50;;;;;;;;;;5054746;28;20025;-51
2021/10/22 09:03:11;;;;;;;4.60;1.42;;;;;;;;;;5031041;28;20386;-50
2021/10/22 09:05:37;;;;;;;12.20;1.27;;;;;;;;;;5029717;28;20359;-50
2021/10/22 09:08:07;;;;;;;5.70;1.35;;;;;;;;;;5048813;28;20358;-50
2021/10/22 09:10:35;;;;;;;6.75;1.23;;;;;;;;;;5032056;28;20464;-50
2021/10/22 09:13:06;;;;;;;10.73;1.20;;;;;;;;;;5046747;28;20029;-51
2021/10/22 09:15:32;;;;;;;10.52;2.25;;;;;;;;;;5050982;28;20031;-50
2021/10/22 09:17:59;;;;;;;7.93;1.70;;;;;;;;;;5041318;28;20029;-50
2021/10/22 09:20:27;;;;;;;5.85;1.65;;;;;;;;;;5032236;28;20362;-50
2021/10/22 09:22:54;;;;;;;2.80;0.82;;;;;;;;;;5033201;28;20029;-50
2021/10/22 09:25:22;;;;;;;3.25;1.35;;;;;;;;;;5034770;28;20037;-51
2021/10/22 09:27:57;;;;;;;6.30;1.20;;;;;;;;;;5035537;28;20443;-50
2021/10/22 09:30:23;;;;;;;6.50;1.42;;;;;;;;;;5035421;28;20037;-50
2021/10/22 09:32:50;;;;;;;3.70;0.98;;;;;;;;;;5036117;28;20104;-50
2021/10/22 09:35:33;;;;;;;7.20;1.10;;;;;;;;;;5034638;28;20447;-50
2021/10/22 09:38:08;;;;;;;2.88;0.80;;;;;;;;;;5035612;28;20033;-50
2021/10/22 09:40:36;;;;;;;7.53;1.35;;;;;;;;;;5036097;28;20029;-50
2021/10/22 09:43:31;;;;;;;6.97;1.35;;;;;;;;;;5035951;28;20021;-50
2021/10/22 09:46:13;;;;;;;8.25;1.60;;;;;;;;;;5012818;28;20087;-50
2021/10/22 09:48:43;;;;;;;5.50;1.85;;;;;;;;;;5012908;28;20113;-50
2021/10/22 09:51:19;;;;;;;6.32;2.08;;;;;;;;;;5013248;28;20079;-50
2021/10/22 09:53:45;;;;;;;5.80;0.90;;;;;;;;;;5012250;28;20042;-50
2021/10/22 09:56:18;;;;;;;5.45;0.98;;;;;;;;;;5012551;28;20197;-50
2021/10/22 09:58:52;;;;;;;9.55;0.90;;;;;;;;;;5012950;28;20033;-50
2021/10/22 10:01:18;;;;;;;6.50;1.48;;;;;;;;;;5013040;28;20384;-50
2021/10/22 10:03:44;;;;;;;6.10;1.20;;;;;;;;;;5011781;28;20136;-50
2021/10/22 10:06:11;;;;;;;2.88;1.40;;;;;;;;;;5012861;28;20034;-50
2021/10/22 10:08:39;;;;;;;8.45;1.35;;;;;;;;;;5012244;28;20491;-50
2021/10/22 10:11:05;;;;;;;5.18;1.23;;;;;;;;;;5012965;28;20030;-50
2021/10/22 10:13:35;;;;;;;12.27;2.13;;;;;;;;;;5011976;28;20475;-50
2021/10/22 10:16:02;;;;;;;3.65;0.82;;;;;;;;;;5012522;28;20038;-50
2021/10/22 10:18:28;;;;;;;5.75;1.50;;;;;;;;;;5012455;28;20026;-50
2021/10/22 10:20:55;;;;;;;4.78;0.70;;;;;;;;;;5012399;28;20364;-50
2021/10/22 10:23:21;;;;;;;1.20;0.40;;;;;;;;;;5032467;28;20041;-50
2021/10/22 10:25:48;;;;;;;3.45;1.02;;;;;;;;;;5034145;28;20045;-50
2021/10/22 10:28:14;;;;;;;2.63;0.60;;;;;;;;;;5034764;28;20075;-50
2021/10/22 10:30:41;;;;;;;5.07;0.98;;;;;;;;;;5034134;28;20067;-50
2021/10/22 10:33:08;;;;;;;3.17;0.88;;;;;;;;;;5034788;28;20022;-50
2021/10/22 10:35:39;;;;;;;4.43;0.90;;;;;;;;;;5033114;28;20339;-50
2021/10/22 10:38:08;;;;;;;4.55;1.13;;;;;;;;;;5034563;28;20417;-50
2021/10/22 10:40:34;;;;;;;1.88;0.75;;;;;;;;;;5034549;28;20037;-50
2021/10/22 10:43:04;;;;;;;3.60;0.90;;;;;;;;;;5034554;28;20028;-50
2021/10/22 10:45:31;;;;;;;;;;;;;;;;;;5033333;28;20040;-50
2021/10/22 10:48:02;;;;;;;1.73;0.77;;;;;;;;;;5034085;28;19951;-50
2021/10/22 10:50:53;;;;;;;2.22;1.52;;;;;;;;;;5034162;28;20350;-50
2021/10/22 10:53:19;;;;;;;;;;;;;;;;;;5034595;28;20057;-50
2021/10/22 10:55:51;;;;;;;2.08;0.45;;;;;;;;;;5033165;28;20006;-50
2021/10/22 10:58:22;;;;;;;5.88;0.90;;;;;;;;;;5034158;28;20060;-50
2021/10/22 11:00:48;;;;;;;;;;;;;;;;;;5034100;28;20030;-50
2021/10/22 11:03:15;;;;;;;2.75;0.63;;;;;;;;;;5033999;28;19928;-50
2021/10/22 11:05:45;;;;;;;3.10;0.90;;;;;;;;;;5032757;28;20044;-50
2021/10/22 11:08:14;;;;;;;4.57;0.80;;;;;;;;;;5033963;28;20080;-50
2021/10/22 11:11:01;;;;;;;2.40;0.77;;;;;;;;;;5033851;28;20031;-50
2021/10/22 11:13:42;;;;;;;7.38;1.30;;;;;;;;;;5033524;28;20113;-50
2021/10/22 11:16:10;;;;;;;4.50;1.08;;;;;;;;;;5033497;28;20545;-50
2021/10/22 11:18:37;;;;;;;1.90;0.57;;;;;;;;;;5033543;28;20025;-50
2021/10/22 11:21:04;;;;;;;1.90;0.80;;;;;;;;;;5033114;28;20057;-50
2021/10/22 11:23:30;;;;;;;5.72;1.05;;;;;;;;;;5033106;28;20029;-50
2021/10/22 11:25:57;;;;;;;1.85;0.80;;;;;;;;;;5033196;28;20100;-50
2021/10/22 11:28:32;;;;;;;2.53;1.10;;;;;;;;;;5033631;28;20052;-50
2021/10/22 11:30:59;;;;;;;4.43;1.67;;;;;;;;;;5033229;28;20091;-50
2021/10/22 11:33:28;;;;;;;2.50;0.70;;;;;;;;;;5033323;28;20024;-50
2021/10/22 11:35:55;;;;;;;0.40;0.40;;;;;;;;;;5033234;28;20028;-50
2021/10/22 11:38:25;;;;;;;1.98;0.82;;;;;;;;;;5033211;28;20025;-50
2021/10/22 11:40:52;;;;;;;4.03;0.60;;;;;;;;;;5032984;28;20022;-50
2021/10/22 11:43:19;;;;;;;5.78;0.70;;;;;;;;;;5033283;28;20033;-50
2021/10/22 11:45:50;;;;;;;7.75;1.10;;;;;;;;;;5032252;28;20037;-50
2021/10/22 11:48:30;;;;;;;2.00;0.93;;;;;;;;;;5033096;28;20018;-50
2021/10/22 11:50:56;;;;;;;1.95;0.50;;;;;;;;;;5033209;28;20406;-50
2021/10/22 11:53:25;;;;;;;3.47;0.60;;;;;;;;;;5033214;28;20052;-50
2021/10/22 11:55:57;;;;;;;6.93;0.80;;;;;;;;;;5032543;28;20047;-51
2021/10/22 11:58:25;;;;;;;2.58;0.73;;;;;;;;;;5033092;28;20455;-50
2021/10/22 12:00:52;;;;;;;1.90;0.95;;;;;;;;;;5032898;28;20448;-50
2021/10/22 12:03:31;;;;;;;2.72;0.75;;;;;;;;;;5032582;28;20029;-51
2021/10/22 12:06:01;;;;;;;2.67;0.60;;;;;;;;;;5032735;28;20265;-50
2021/10/22 12:08:30;;;;;;;2.05;0.98;;;;;;;;;;5033078;28;20036;-50
2021/10/22 12:10:59;;;;;;;3.22;0.80;;;;;;;;;;5032992;28;20049;-51
2021/10/22 12:13:28;;;;;;;0.50;0.50;;;;;;;;;;5032714;28;20364;-50
2021/10/22 12:15:54;;;;;;;2.77;0.70;;;;;;;;;;5032840;28;20104;-50
2021/10/22 12:18:21;;;;;;;1.10;0.68;;;;;;;;;;5032772;28;20363;-51
2021/10/22 12:20:47;;;;;;;5.90;1.20;;;;;;;;;;5032729;28;20021;-51
2021/10/22 12:23:14;;;;;;;7.28;1.10;;;;;;;;;;5031832;28;20022;-50
2021/10/22 12:25:44;;;;;;;3.78;1.13;;;;;;;;;;5032071;28;20370;-50
2021/10/22 12:28:15;;;;;;;5.28;0.85;;;;;;;;;;5032778;28;20083;-50
2021/10/22 12:30:41;;;;;;;6.25;0.73;;;;;;;;;;5032073;28;20363;-50
2021/10/22 12:33:07;;;;;;;1.45;0.63;;;;;;;;;;5033092;28;20056;-50
2021/10/22 12:35:35;;;;;;;2.28;0.73;;;;;;;;;;5031689;28;20053;-51
2021/10/22 12:38:09;;;;;;;3.00;1.10;;;;;;;;;;5032726;28;20470;-50
2021/10/22 12:40:35;;;;;;;5.00;1.08;;;;;;;;;;5032622;28;20367;-50
2021/10/22 12:43:04;;;;;;;4.05;0.80;;;;;;;;;;5032610;28;20021;-50
2021/10/22 12:45:30;;;;;;;5.70;1.02;;;;;;;;;;5031903;28;20037;-51
2021/10/22 12:47:57;;;;;;;6.78;1.08;;;;;;;;;;5032848;28;20025;-50
2021/10/22 12:50:32;;;;;;;2.38;1.25;;;;;;;;;;5032502;28;20029;-50
2021/10/22 12:52:59;;;;;;;5.13;1.08;;;;;;;;;;5032543;28;20032;-50
2021/10/22 12:55:27;;;;;;;2.65;1.10;;;;;;;;;;5031699;28;20032;-50
2021/10/22 12:58:10;;;;;;;4.50;1.67;;;;;;;;;;5033597;28;20029;-50
2021/10/22 13:00:37;;;;;;;1.00;0.52;;;;;;;;;;5036036;28;20371;-50
2021/10/22 13:03:06;;;;;;;3.42;0.68;;;;;;;;;;5036529;28;20021;-50
2021/10/22 13:05:33;;;;;;;3.53;0.73;;;;;;;;;;5035074;28;20040;-50
2021/10/22 13:11:07;;;;;;;2.30;0.93;;;;;;;;;;5036131;28;20117;-50
2021/10/22 13:21:33;;;;;;;0.43;0.43;;;;;;;;;;5025013;28;20057;-50
2021/10/22 13:23:59;;;;;;;0.75;0.43;;;;;;;;;;5035402;28;20051;-51
2021/10/22 13:26:25;;;;;;;8.82;0.77;;;;;;;;;;5035990;28;20037;-50
2021/10/22 13:28:51;;;;;;;0.85;0.43;;;;;;;;;;5035690;28;20478;-51
2021/10/22 13:31:19;;;;;;;0.70;0.70;;;;;;;;;;5035524;28;20037;-50
2021/10/22 13:33:45;;;;;;;0.95;0.90;;;;;;;;;;5034694;28;20040;-50
2021/10/22 13:36:11;;;;;;;3.88;0.82;;;;;;;;;;5035407;28;20025;-50
2021/10/22 13:38:37;;;;;;;5.70;0.70;;;;;;;;;;5035808;28;20108;-50
2021/10/22 13:41:03;;;;;;;0.82;0.70;;;;;;;;;;5035391;28;20115;-50
2021/10/22 13:43:29;;;;;;;0.63;0.60;;;;;;;;;;5034908;28;20454;-50
2021/10/22 13:45:55;;;;;;;9.73;0.82;;;;;;;;;;5034940;28;20459;-50
2021/10/22 13:48:21;;;;;;;1.13;0.75;;;;;;;;;;5035175;28;20021;-50
2021/10/22 13:50:48;;;;;;;1.83;1.00;;;;;;;;;;5035100;28;20032;-50
2021/10/22 13:53:19;;;;;;;3.20;1.30;;;;;;;;;;5035221;28;20025;-50
2021/10/22 13:55:45;;;;;;;7.05;1.00;;;;;;;;;;5034759;28;20059;-51
2021/10/22 13:58:11;;;;;;;4.60;1.23;;;;;;;;;;5035491;28;20523;-50
2021/10/22 14:00:38;;;;;;;1.63;0.60;;;;;;;;;;5034946;28;20463;-51
2021/10/22 14:03:04;;;;;;;2.95;1.63;;;;;;;;;;5034829;28;20029;-50
2021/10/22 14:05:30;;;;;;;7.70;1.00;;;;;;;;;;5034112;28;20095;-51
2021/10/22 14:07:56;;;;;;;3.50;0.90;;;;;;;;;;5034772;28;20356;-50
2021/10/22 14:10:25;;;;;;;1.75;0.68;;;;;;;;;;5034224;28;20022;-50
2021/10/22 14:13:04;;;;;;;4.68;0.90;;;;;;;;;;5035093;28;20064;-50
2021/10/22 14:29:09;;;;;;;1.42;0.40;;;;;;;;;;5034576;28;20040;-50
2021/10/22 14:31:39;;;;;;;4.88;1.05;;;;;;;;;;5034459;28;20045;-50
2021/10/22 14:34:05;;;;;;;2.33;0.70;;;;;;;;;;5033932;28;20025;-50
2021/10/22 14:36:32;;;;;;;2.35;0.60;;;;;;;;;;5034565;28;20049;-51
2021/10/22 14:38:58;;;;;;;1.85;1.00;;;;;;;;;;5034615;28;20026;-50
2021/10/22 14:41:25;;;;;;;6.38;0.77;;;;;;;;;;5034499;28;20087;-50
2021/10/22 14:43:54;;;;;;;5.35;0.73;;;;;;;;;;5033755;28;20052;-50
2021/10/22 14:48:57;;;;;;;4.82;0.85;;;;;;;;;;5034012;28;20033;-50
2021/10/22 14:51:59;;;;;;;2.20;0.70;;;;;;;;;;5034159;28;20029;-50
2021/10/22 14:54:14;;;;;;;0.65;0.60;;;;;;;;;;5033101;28;20049;-51
2021/10/22 14:56:40;;;;;;;3.60;1.15;;;;;;;;;;5033957;28;20037;-52
2021/10/22 14:59:09;;;;;;;6.97;0.60;;;;;;;;;;5033874;28;20049;-52
2021/10/22 15:01:36;;;;;;;4.65;1.17;;;;;;;;;;5034153;28;20017;-51
2021/10/22 15:04:03;;;;;;;3.78;0.80;;;;;;;;;;5033378;28;20021;-53
2021/10/22 15:06:31;;;;;;;2.45;0.93;;;;;;;;;;5034066;28;20148;-54
2021/10/22 15:08:57;;;;;;;6.60;0.95;;;;;;;;;;5035383;28;20340;-54
2021/10/22 15:11:23;;;;;;;1.85;1.02;;;;;;;;;;5053331;28;20182;-51
2021/10/22 15:13:49;;;;;;;0.82;0.60;;;;;;;;;;5053151;28;20027;-51
2021/10/22 15:16:15;;;;;;;5.72;0.60;;;;;;;;;;5053734;28;20028;-51
2021/10/22 15:18:42;;;;;;;5.32;0.70;;;;;;;;;;5053507;28;20025;-51
2021/10/22 15:21:08;;;;;;;1.88;0.75;;;;;;;;;;5052797;28;20025;-51